createdAt,value
2018-09-18T00:00:21.618Z,81.08
2018-09-18T00:01:00.085Z,81.84
2018-09-18T00:01:38.698Z,81.32
2018-09-18T00:02:17.563Z,81.35
2018-09-18T00:02:55.962Z,81.08
2018-09-18T00:03:34.384Z,82.11
2018-09-18T00:04:12.877Z,82.10
2018-09-18T00:04:51.508Z,81.10
2018-09-18T00:05:30.694Z,81.07
2018-09-18T00:06:09.350Z,80.78
2018-09-18T00:06:49.060Z,80.77
2018-09-18T00:07:27.513Z,80.85
2018-09-18T00:08:06.179Z,81.89
2018-09-18T00:08:44.860Z,81.79
2018-09-18T00:09:23.310Z,80.89
2018-09-18T00:10:01.708Z,81.85
2018-09-18T00:10:40.657Z,80.94
2018-09-18T00:11:19.322Z,81.62
2018-09-18T00:11:57.610Z,80.86
2018-09-18T00:12:35.846Z,81.39
2018-09-18T00:13:13.953Z,81.05
2018-09-18T00:13:51.979Z,81.72
2018-09-18T00:14:30.064Z,80.87
2018-09-18T00:15:08.585Z,80.89
2018-09-18T00:15:47.597Z,81.83
2018-09-18T00:16:26.474Z,80.94
2018-09-18T00:17:04.473Z,81.87
2018-09-18T00:17:42.408Z,81.25
2018-09-18T00:18:20.401Z,82.08
2018-09-18T00:18:58.289Z,81.96
2018-09-18T00:19:36.427Z,81.25
2018-09-18T00:20:14.473Z,81.27
2018-09-18T00:20:52.455Z,81.06
2018-09-18T00:21:30.389Z,81.07
2018-09-18T00:22:08.348Z,81.29
2018-09-18T00:22:46.275Z,81.83
2018-09-18T00:23:24.278Z,81.27
2018-09-18T00:24:02.629Z,81.30
2018-09-18T00:24:40.875Z,81.19
2018-09-18T00:25:18.837Z,81.47
2018-09-18T00:25:56.825Z,82.44
2018-09-18T00:26:35.849Z,82.18
2018-09-18T00:27:13.812Z,82.46
2018-09-18T00:27:51.640Z,82.31
2018-09-18T00:28:29.751Z,81.25
2018-09-18T00:29:08.880Z,81.20
2018-09-18T00:29:46.909Z,81.32
2018-09-18T00:30:24.873Z,81.26
2018-09-18T00:31:03.709Z,81.80
2018-09-18T00:31:41.969Z,81.77
2018-09-18T00:32:19.918Z,82.52
2018-09-18T00:32:58.913Z,81.76
2018-09-18T00:33:36.928Z,82.28
2018-09-18T00:34:14.874Z,81.84
2018-09-18T00:34:52.809Z,81.83
2018-09-18T00:35:30.755Z,81.78
2018-09-18T00:36:09.613Z,81.53
2018-09-18T00:36:47.681Z,82.36
2018-09-18T00:37:25.680Z,81.99
2018-09-18T00:38:03.808Z,81.95
2018-09-18T00:38:41.869Z,82.47
2018-09-18T00:39:19.709Z,81.54
2018-09-18T00:39:57.626Z,82.26
2018-09-18T00:40:36.616Z,81.30
2018-09-18T00:41:14.649Z,81.70
2018-09-18T00:41:52.509Z,81.60
2018-09-18T00:42:30.344Z,81.11
2018-09-18T00:43:08.207Z,81.85
2018-09-18T00:43:46.269Z,80.61
2018-09-18T00:44:25.331Z,80.61
2018-09-18T00:45:03.241Z,81.55
2018-09-18T00:45:41.323Z,81.59
2018-09-18T00:46:19.277Z,81.50
2018-09-18T00:46:57.280Z,80.51
2018-09-18T00:47:35.287Z,81.12
2018-09-18T00:48:13.189Z,81.34
2018-09-18T00:48:51.185Z,81.10
2018-09-18T00:49:29.183Z,81.15
2018-09-18T00:50:07.084Z,80.26
2018-09-18T00:50:45.048Z,80.41
2018-09-18T00:51:22.975Z,80.98
2018-09-18T00:52:00.896Z,80.07
2018-09-18T00:52:38.817Z,79.88
2018-09-18T00:53:16.798Z,80.14
2018-09-18T00:53:54.809Z,80.25
2018-09-18T00:54:33.850Z,79.66
2018-09-18T00:55:11.813Z,80.47
2018-09-18T00:55:50.843Z,80.59
2018-09-18T00:56:28.862Z,80.40
2018-09-18T00:57:07.562Z,80.79
2018-09-18T00:57:46.329Z,79.65
2018-09-18T00:58:24.294Z,80.39
2018-09-18T00:59:02.449Z,80.25
2018-09-18T00:59:40.494Z,80.64
2018-09-18T01:00:18.527Z,79.95
2018-09-18T01:00:56.484Z,79.88
2018-09-18T01:01:34.522Z,79.53
2018-09-18T01:02:12.437Z,80.25
2018-09-18T01:02:50.754Z,80.21
2018-09-18T01:03:28.843Z,79.72
2018-09-18T01:04:06.821Z,79.89
2018-09-18T01:04:44.866Z,79.41
2018-09-18T01:05:22.868Z,78.95
2018-09-18T01:06:00.942Z,79.65
2018-09-18T01:06:38.848Z,78.74
2018-09-18T01:07:16.648Z,80.09
2018-09-18T01:07:54.595Z,79.65
2018-09-18T01:08:32.596Z,79.66
2018-09-18T01:09:12.804Z,78.94
2018-09-18T01:09:50.631Z,79.30
2018-09-18T01:10:28.690Z,78.37
2018-09-18T01:11:06.620Z,79.28
2018-09-18T01:11:44.725Z,78.91
2018-09-18T01:12:22.653Z,77.96
2018-09-18T01:13:00.513Z,78.63
2018-09-18T01:13:38.555Z,78.88
2018-09-18T01:14:16.868Z,78.41
2018-09-18T01:14:55.011Z,78.57
2018-09-18T01:15:35.008Z,77.78
2018-09-18T01:16:12.961Z,78.47
2018-09-18T01:16:50.805Z,78.86
2018-09-18T01:17:28.894Z,78.39
2018-09-18T01:18:06.808Z,77.62
2018-09-18T01:18:45.256Z,77.74
2018-09-18T01:19:23.789Z,78.18
2018-09-18T01:20:01.725Z,77.85
2018-09-18T01:20:40.153Z,78.18
2018-09-18T01:21:18.198Z,77.65
2018-09-18T01:21:56.229Z,77.95
2018-09-18T01:22:34.336Z,78.12
2018-09-18T01:23:12.336Z,77.95
2018-09-18T01:23:50.277Z,78.16
2018-09-18T01:24:28.397Z,77.30
2018-09-18T01:25:06.392Z,76.83
2018-09-18T01:25:44.436Z,77.82
2018-09-18T01:26:22.299Z,77.04
2018-09-18T01:27:00.156Z,77.14
2018-09-18T01:27:38.164Z,78.04
2018-09-18T01:28:16.713Z,77.17
2018-09-18T01:28:54.650Z,77.02
2018-09-18T01:29:32.524Z,77.25
2018-09-18T01:30:10.628Z,77.62
2018-09-18T01:30:48.681Z,77.07
2018-09-18T01:31:26.563Z,77.00
2018-09-18T01:32:04.585Z,78.24
2018-09-18T01:32:42.853Z,77.95
2018-09-18T01:33:20.889Z,77.59
2018-09-18T01:33:58.801Z,78.38
2018-09-18T01:34:36.799Z,76.94
2018-09-18T01:35:15.724Z,77.99
2018-09-18T01:35:53.776Z,78.12
2018-09-18T01:36:31.681Z,76.79
2018-09-18T01:37:09.744Z,77.49
2018-09-18T01:37:47.697Z,78.02
2018-09-18T01:38:25.851Z,77.03
2018-09-18T01:39:04.021Z,76.63
2018-09-18T01:39:42.056Z,76.96
2018-09-18T01:40:20.080Z,78.23
2018-09-18T01:40:58.215Z,77.91
2018-09-18T01:41:36.422Z,77.37
2018-09-18T01:42:14.419Z,77.74
2018-09-18T01:42:52.393Z,76.63
2018-09-18T01:43:30.201Z,77.94
2018-09-18T01:44:08.319Z,77.45
2018-09-18T01:44:46.359Z,76.70
2018-09-18T01:45:24.399Z,76.71
2018-09-18T01:46:02.268Z,76.96
2018-09-18T01:46:40.965Z,76.88
2018-09-18T01:47:19.322Z,76.17
2018-09-18T01:47:57.310Z,76.59
2018-09-18T01:48:35.403Z,77.21
2018-09-18T01:49:13.513Z,75.66
2018-09-18T01:49:51.520Z,75.85
2018-09-18T01:50:29.527Z,76.82
2018-09-18T01:51:07.596Z,76.09
2018-09-18T01:51:45.738Z,76.16
2018-09-18T01:52:23.814Z,74.47
2018-09-18T01:53:01.880Z,75.35
2018-09-18T01:53:39.852Z,75.33
2018-09-18T01:54:17.870Z,74.51
2018-09-18T01:54:55.842Z,73.83
2018-09-18T01:55:33.807Z,74.95
2018-09-18T01:56:11.955Z,73.87
2018-09-18T01:56:50.056Z,72.55
2018-09-18T01:57:28.145Z,73.66
2018-09-18T01:58:06.157Z,72.70
2018-09-18T01:58:44.171Z,71.88
2018-09-18T01:59:22.378Z,72.02
2018-09-18T02:00:00.496Z,71.00
2018-09-18T02:00:38.433Z,71.53
2018-09-18T02:01:16.354Z,71.48
2018-09-18T02:01:54.273Z,71.29
2018-09-18T02:02:32.314Z,71.20
2018-09-18T02:03:10.455Z,71.81
2018-09-18T02:03:48.566Z,71.84
2018-09-18T02:04:26.432Z,72.17
2018-09-18T02:05:04.457Z,71.55
2018-09-18T02:05:42.406Z,70.78
2018-09-18T02:06:20.454Z,70.99
2018-09-18T02:06:58.515Z,70.89
2018-09-18T02:07:36.576Z,70.74
2018-09-18T02:08:14.480Z,70.72
2018-09-18T02:08:52.568Z,70.78
2018-09-18T02:09:30.561Z,71.32
2018-09-18T02:10:08.620Z,70.30
2018-09-18T02:10:46.557Z,71.28
2018-09-18T02:11:24.429Z,70.04
2018-09-18T02:12:03.249Z,69.68
2018-09-18T02:12:41.612Z,69.85
2018-09-18T02:13:19.740Z,69.61
2018-09-18T02:13:57.808Z,69.24
2018-09-18T02:14:35.750Z,69.13
2018-09-18T02:15:13.697Z,68.83
2018-09-18T02:15:51.572Z,69.82
2018-09-18T02:16:29.630Z,69.62
2018-09-18T02:17:07.613Z,68.81
2018-09-18T02:17:45.748Z,68.62
2018-09-18T02:18:23.721Z,68.65
2018-09-18T02:19:01.549Z,69.00
2018-09-18T02:19:39.436Z,69.35
2018-09-18T02:20:17.349Z,69.27
2018-09-18T02:20:55.517Z,68.70
2018-09-18T02:21:33.457Z,68.41
2018-09-18T02:22:11.709Z,68.30
2018-09-18T02:22:49.725Z,68.11
2018-09-18T02:23:27.606Z,68.24
2018-09-18T02:24:05.582Z,68.26
2018-09-18T02:24:43.552Z,68.64
2018-09-18T02:25:21.441Z,68.22
2018-09-18T02:25:59.456Z,68.19
2018-09-18T02:26:37.572Z,68.71
2018-09-18T02:27:15.513Z,68.40
2018-09-18T02:27:53.487Z,68.21
2018-09-18T02:28:31.488Z,68.47
2018-09-18T02:29:09.453Z,68.45
2018-09-18T02:29:47.504Z,68.17
2018-09-18T02:30:25.545Z,68.03
2018-09-18T02:31:03.502Z,68.25
2018-09-18T02:31:41.529Z,68.11
2018-09-18T02:32:19.532Z,67.86
2018-09-18T02:32:58.564Z,67.65
2018-09-18T02:33:36.660Z,67.48
2018-09-18T02:34:14.541Z,67.65
2018-09-18T02:34:52.922Z,67.52
2018-09-18T02:35:31.048Z,67.79
2018-09-18T02:36:09.247Z,67.41
2018-09-18T02:36:47.187Z,67.60
2018-09-18T02:37:25.048Z,67.57
2018-09-18T02:38:03.062Z,68.01
2018-09-18T02:38:41.007Z,67.48
2018-09-18T02:39:19.296Z,67.72
2018-09-18T02:39:57.215Z,67.93
2018-09-18T02:40:35.205Z,68.18
2018-09-18T02:41:13.138Z,67.93
2018-09-18T02:41:51.156Z,67.93
2018-09-18T02:42:29.301Z,68.08
2018-09-18T02:43:07.407Z,68.23
2018-09-18T02:43:45.319Z,68.28
2018-09-18T02:44:24.110Z,68.12
2018-09-18T02:45:02.140Z,68.53
2018-09-18T02:45:40.435Z,67.95
2018-09-18T02:46:18.933Z,68.12
2018-09-18T02:46:56.884Z,68.14
2018-09-18T02:47:34.794Z,67.93
2018-09-18T02:48:13.477Z,68.62
2018-09-18T02:48:51.551Z,68.44
2018-09-18T02:49:29.429Z,68.17
2018-09-18T02:50:07.692Z,68.34
2018-09-18T02:50:45.572Z,68.24
2018-09-18T02:51:24.391Z,67.77
2018-09-18T02:52:06.720Z,67.72
2018-09-18T02:52:44.594Z,67.77
2018-09-18T02:53:22.695Z,67.09
2018-09-18T02:54:00.716Z,67.63
2018-09-18T02:54:38.860Z,67.84
2018-09-18T02:55:16.831Z,67.67
2018-09-18T02:55:55.030Z,68.57
2018-09-18T02:56:32.991Z,68.47
2018-09-18T02:57:10.928Z,68.43
2018-09-18T02:57:48.776Z,68.35
2018-09-18T02:58:26.854Z,68.49
2018-09-18T02:59:04.997Z,67.98
2018-09-18T02:59:43.217Z,68.21
2018-09-18T03:00:21.122Z,68.32
2018-09-18T03:00:58.999Z,68.60
2018-09-18T03:01:36.921Z,68.51
2018-09-18T03:02:14.886Z,68.13
2018-09-18T03:02:53.324Z,67.75
2018-09-18T03:03:31.918Z,67.65
2018-09-18T03:04:09.881Z,67.93
2018-09-18T03:04:47.816Z,67.73
2018-09-18T03:05:25.784Z,68.24
2018-09-18T03:06:03.766Z,68.45
2018-09-18T03:06:41.702Z,68.25
2018-09-18T03:07:19.627Z,68.63
2018-09-18T03:07:57.686Z,68.31
2018-09-18T03:08:35.629Z,68.22
2018-09-18T03:09:14.068Z,68.54
2018-09-18T03:09:52.220Z,68.49
2018-09-18T03:10:31.086Z,68.22
2018-09-18T03:11:09.035Z,68.56
2018-09-18T03:11:47.031Z,68.60
2018-09-18T03:12:25.083Z,68.59
2018-09-18T03:13:02.975Z,68.59
2018-09-18T03:13:40.860Z,68.78
2018-09-18T03:14:18.830Z,68.54
2018-09-18T03:14:56.845Z,68.62
2018-09-18T03:15:35.643Z,69.02
2018-09-18T03:16:13.528Z,68.56
2018-09-18T03:16:51.480Z,68.80
2018-09-18T03:17:29.393Z,69.00
2018-09-18T03:18:07.467Z,68.75
2018-09-18T03:18:45.402Z,68.31
2018-09-18T03:19:23.627Z,68.98
2018-09-18T03:20:01.664Z,69.12
2018-09-18T03:20:39.618Z,69.44
2018-09-18T03:21:17.540Z,69.10
2018-09-18T03:21:55.410Z,68.92
2018-09-18T03:22:33.345Z,69.09
2018-09-18T03:23:11.554Z,68.96
2018-09-18T03:23:49.751Z,69.00
2018-09-18T03:24:27.724Z,69.16
2018-09-18T03:25:05.777Z,69.30
2018-09-18T03:25:43.781Z,69.46
2018-09-18T03:26:22.489Z,69.50
2018-09-18T03:27:00.375Z,69.68
2018-09-18T03:27:38.320Z,69.96
2018-09-18T03:28:17.151Z,70.33
2018-09-18T03:28:55.080Z,69.46
2018-09-18T03:29:33.100Z,68.84
2018-09-18T03:30:11.129Z,69.32
2018-09-18T03:30:49.120Z,69.33
2018-09-18T03:31:27.097Z,69.63
2018-09-18T03:32:05.306Z,69.29
2018-09-18T03:32:43.270Z,69.76
2018-09-18T03:33:21.937Z,69.59
2018-09-18T03:34:00.173Z,70.19
2018-09-18T03:34:38.152Z,70.13
2018-09-18T03:35:16.084Z,69.39
2018-09-18T03:35:54.081Z,69.79
2018-09-18T03:36:32.071Z,69.79
2018-09-18T03:37:09.923Z,69.96
2018-09-18T03:37:47.894Z,69.90
2018-09-18T03:38:30.507Z,69.84
2018-09-18T03:39:15.185Z,69.74
2018-09-18T03:39:54.936Z,69.49
2018-09-18T03:40:38.816Z,69.99
2018-09-18T03:41:17.744Z,70.09
2018-09-18T03:41:57.858Z,69.97
2018-09-18T03:42:36.750Z,69.89
2018-09-18T03:43:15.578Z,70.18
2018-09-18T03:43:53.665Z,69.42
2018-09-18T03:44:31.505Z,69.43
2018-09-18T03:45:09.463Z,69.63
2018-09-18T03:45:47.438Z,69.90
2018-09-18T03:46:25.478Z,69.11
2018-09-18T03:47:03.358Z,70.08
2018-09-18T03:47:41.138Z,69.81
2018-09-18T03:48:19.920Z,69.78
2018-09-18T03:48:58.317Z,70.08
2018-09-18T03:49:38.131Z,70.76
2018-09-18T03:50:17.962Z,70.39
2018-09-18T03:50:55.998Z,70.10
2018-09-18T03:51:35.291Z,69.89
2018-09-18T03:52:14.056Z,69.90
2018-09-18T03:52:52.948Z,69.71
2018-09-18T03:53:31.091Z,69.97
2018-09-18T03:54:09.033Z,69.84
2018-09-18T03:54:46.969Z,69.85
2018-09-18T03:55:25.094Z,70.24
2018-09-18T03:56:04.141Z,70.04
2018-09-18T03:56:42.056Z,70.03
2018-09-18T03:57:20.363Z,69.65
2018-09-18T03:57:58.327Z,69.57
2018-09-18T03:58:36.490Z,69.54
2018-09-18T03:59:14.398Z,68.76
2018-09-18T03:59:52.313Z,69.78
2018-09-18T04:00:31.145Z,69.73
2018-09-18T04:01:09.077Z,69.23
2018-09-18T04:01:49.261Z,68.86
2018-09-18T04:02:27.289Z,69.00
2018-09-18T04:03:05.323Z,69.31
2018-09-18T04:03:43.317Z,69.09
2018-09-18T04:04:21.366Z,68.67
2018-09-18T04:04:59.422Z,68.50
2018-09-18T04:05:37.329Z,68.55
2018-09-18T04:06:15.341Z,68.36
2018-09-18T04:06:53.302Z,68.21
2018-09-18T04:07:31.245Z,68.54
2018-09-18T04:08:09.224Z,68.54
2018-09-18T04:08:47.235Z,68.49
2018-09-18T04:09:25.233Z,68.53
2018-09-18T04:10:03.135Z,68.30
2018-09-18T04:10:41.322Z,68.52
2018-09-18T04:11:19.375Z,68.07
2018-09-18T04:11:57.380Z,68.01
2018-09-18T04:12:35.321Z,67.96
2018-09-18T04:13:13.321Z,67.70
2018-09-18T04:13:51.664Z,67.82
2018-09-18T04:14:30.117Z,67.80
2018-09-18T04:15:08.211Z,67.85
2018-09-18T04:15:47.081Z,67.34
2018-09-18T04:16:24.994Z,67.37
2018-09-18T04:17:02.945Z,67.29
2018-09-18T04:17:41.312Z,67.19
2018-09-18T04:18:22.295Z,66.44
2018-09-18T04:19:00.386Z,66.17
2018-09-18T04:19:38.328Z,66.03
2018-09-18T04:20:16.750Z,66.04
2018-09-18T04:20:54.642Z,65.60
2018-09-18T04:21:36.654Z,65.71
2018-09-18T04:22:14.719Z,65.89
2018-09-18T04:22:52.713Z,66.00
2018-09-18T04:23:30.760Z,66.02
2018-09-18T04:24:08.782Z,65.65
2018-09-18T04:24:46.837Z,65.23
2018-09-18T04:25:24.754Z,64.85
2018-09-18T04:26:02.749Z,64.41
2018-09-18T04:26:42.757Z,64.99
2018-09-18T04:27:20.760Z,64.67
2018-09-18T04:27:58.717Z,64.29
2018-09-18T04:28:36.657Z,64.43
2018-09-18T04:29:14.605Z,63.95
2018-09-18T04:29:52.405Z,64.00
2018-09-18T04:30:30.346Z,63.38
2018-09-18T04:31:08.483Z,63.44
2018-09-18T04:31:46.384Z,63.23
2018-09-18T04:32:24.281Z,63.27
2018-09-18T04:33:02.172Z,63.00
2018-09-18T04:33:40.037Z,62.58
2018-09-18T04:34:17.910Z,62.37
2018-09-18T04:34:55.971Z,62.25
2018-09-18T04:35:33.938Z,62.75
2018-09-18T04:36:12.058Z,62.01
2018-09-18T04:36:49.880Z,61.93
2018-09-18T04:37:27.968Z,61.57
2018-09-18T04:38:05.965Z,60.76
2018-09-18T04:38:43.993Z,60.81
2018-09-18T04:39:21.840Z,59.93
2018-09-18T04:39:59.881Z,59.91
2018-09-18T04:40:38.026Z,60.80
2018-09-18T04:41:16.135Z,60.22
2018-09-18T04:41:54.136Z,59.67
2018-09-18T04:42:31.940Z,58.93
2018-09-18T04:43:09.868Z,58.28
2018-09-18T04:43:47.682Z,59.36
2018-09-18T04:44:25.642Z,59.85
2018-09-18T04:45:03.488Z,59.56
2018-09-18T04:45:41.609Z,59.92
2018-09-18T04:46:26.004Z,59.31
2018-09-18T04:47:04.096Z,58.53
2018-09-18T04:47:43.260Z,59.03
2018-09-18T04:48:21.374Z,58.93
2018-09-18T04:48:59.385Z,59.28
2018-09-18T04:49:37.627Z,58.82
2018-09-18T04:50:16.577Z,58.17
2018-09-18T04:50:54.508Z,58.84
2018-09-18T04:51:32.428Z,58.82
2018-09-18T04:52:10.432Z,58.16
2018-09-18T04:52:48.427Z,59.02
2018-09-18T04:53:26.429Z,57.84
2018-09-18T04:54:04.304Z,58.35
2018-09-18T04:54:42.249Z,58.28
2018-09-18T04:55:20.199Z,57.98
2018-09-18T04:55:58.201Z,57.80
2018-09-18T04:56:36.175Z,57.90
2018-09-18T04:57:14.293Z,57.38
2018-09-18T04:57:52.367Z,57.38
2018-09-18T04:58:30.573Z,56.94
2018-09-18T04:59:08.962Z,56.89
2018-09-18T04:59:46.948Z,57.61
2018-09-18T05:00:24.856Z,57.03
2018-09-18T05:01:02.757Z,57.14
2018-09-18T05:01:40.795Z,57.24
2018-09-18T05:02:18.710Z,57.43
2018-09-18T05:02:56.644Z,56.36
2018-09-18T05:03:34.709Z,57.01
2018-09-18T05:04:12.773Z,56.94
2018-09-18T05:04:50.943Z,56.69
2018-09-18T05:05:28.865Z,56.07
2018-09-18T05:06:06.928Z,56.69
2018-09-18T05:06:44.928Z,57.55
2018-09-18T05:07:22.845Z,57.44
2018-09-18T05:08:00.796Z,56.49
2018-09-18T05:08:38.659Z,57.18
2018-09-18T05:09:16.674Z,57.01
2018-09-18T05:09:55.567Z,55.80
2018-09-18T05:10:33.479Z,56.79
2018-09-18T05:11:11.447Z,57.09
2018-09-18T05:11:49.356Z,56.89
2018-09-18T05:12:27.321Z,57.41
2018-09-18T05:13:06.163Z,57.78
2018-09-18T05:13:44.061Z,57.45
2018-09-18T05:14:22.077Z,57.77
2018-09-18T05:15:01.364Z,57.74
2018-09-18T05:15:41.081Z,57.73
2018-09-18T05:16:18.968Z,58.16
2018-09-18T05:16:56.957Z,58.98
2018-09-18T05:17:34.837Z,59.16
2018-09-18T05:18:12.829Z,58.02
2018-09-18T05:18:50.735Z,58.79
2018-09-18T05:19:28.625Z,58.16
2018-09-18T05:20:06.732Z,58.88
2018-09-18T05:20:44.620Z,59.01
2018-09-18T05:21:22.539Z,59.27
2018-09-18T05:22:00.481Z,58.15
2018-09-18T05:22:38.431Z,59.29
2018-09-18T05:23:17.960Z,58.49
2018-09-18T05:23:55.913Z,58.27
2018-09-18T05:24:34.094Z,57.87
2018-09-18T05:25:12.021Z,58.96
2018-09-18T05:25:50.418Z,59.37
2018-09-18T05:26:28.476Z,59.53
2018-09-18T05:27:06.492Z,59.46
2018-09-18T05:27:44.465Z,59.46
2018-09-18T05:28:22.442Z,58.68
2018-09-18T05:29:00.552Z,58.97
2018-09-18T05:29:38.509Z,58.78
2018-09-18T05:30:16.876Z,59.35
2018-09-18T05:30:54.964Z,58.75
2018-09-18T05:31:33.047Z,57.64
2018-09-18T05:32:11.129Z,57.89
2018-09-18T05:32:49.037Z,58.11
2018-09-18T05:33:26.908Z,57.70
2018-09-18T05:34:04.941Z,58.50
2018-09-18T05:34:43.753Z,57.42
2018-09-18T05:35:21.744Z,57.62
2018-09-18T05:36:00.472Z,58.82
2018-09-18T05:36:38.557Z,57.85
2018-09-18T05:37:17.713Z,58.38
2018-09-18T05:37:55.858Z,59.03
2018-09-18T05:38:33.878Z,59.55
2018-09-18T05:39:13.382Z,59.62
2018-09-18T05:39:51.311Z,59.30
2018-09-18T05:40:29.410Z,59.51
2018-09-18T05:41:07.418Z,58.86
2018-09-18T05:41:51.019Z,59.20
2018-09-18T05:42:28.989Z,60.08
2018-09-18T05:43:07.002Z,59.79
2018-09-18T05:43:46.217Z,58.81
2018-09-18T05:44:24.374Z,59.40
2018-09-18T05:45:02.461Z,59.27
2018-09-18T05:45:40.394Z,59.37
2018-09-18T05:46:18.252Z,59.34
2018-09-18T05:46:56.240Z,59.77
2018-09-18T05:47:35.150Z,60.13
2018-09-18T05:48:14.651Z,60.40
2018-09-18T05:48:53.647Z,60.58
2018-09-18T05:49:33.025Z,60.78
2018-09-18T05:50:10.992Z,60.58
2018-09-18T05:50:48.971Z,60.26
2018-09-18T05:51:26.956Z,60.35
2018-09-18T05:52:04.826Z,60.30
2018-09-18T05:52:42.703Z,60.60
2018-09-18T05:53:21.589Z,60.24
2018-09-18T05:53:59.648Z,60.37
2018-09-18T05:54:37.645Z,60.03
2018-09-18T05:55:15.607Z,60.79
2018-09-18T05:55:53.604Z,60.61
2018-09-18T05:56:31.549Z,61.04
2018-09-18T05:57:09.636Z,60.99
2018-09-18T05:57:47.552Z,60.58
2018-09-18T05:58:25.531Z,60.26
2018-09-18T05:59:04.553Z,60.13
2018-09-18T05:59:43.340Z,59.90
2018-09-18T06:00:21.307Z,59.69
2018-09-18T06:00:59.412Z,59.35
2018-09-18T06:01:37.408Z,59.69
2018-09-18T06:02:16.409Z,59.57
2018-09-18T06:02:55.422Z,60.07
2018-09-18T06:03:33.777Z,60.26
2018-09-18T06:04:12.558Z,60.33
2018-09-18T06:04:50.490Z,60.27
2018-09-18T06:05:28.418Z,60.32
2018-09-18T06:06:06.320Z,60.25
2018-09-18T06:06:46.215Z,60.61
2018-09-18T06:07:24.166Z,59.28
2018-09-18T06:08:02.198Z,58.89
2018-09-18T06:08:40.166Z,59.41
2018-09-18T06:09:18.149Z,58.86
2018-09-18T06:09:56.090Z,58.63
2018-09-18T06:10:34.069Z,58.81
2018-09-18T06:11:12.502Z,59.40
2018-09-18T06:11:50.316Z,59.37
2018-09-18T06:12:28.360Z,59.71
2018-09-18T06:13:06.409Z,60.50
2018-09-18T06:13:44.244Z,59.49
2018-09-18T06:14:22.119Z,59.67
2018-09-18T06:15:00.069Z,60.06
2018-09-18T06:15:38.016Z,59.49
2018-09-18T06:16:16.353Z,59.58
2018-09-18T06:16:54.228Z,59.47
2018-09-18T06:17:32.221Z,59.51
2018-09-18T06:18:10.281Z,59.63
2018-09-18T06:18:48.375Z,60.42
2018-09-18T06:19:26.542Z,60.65
2018-09-18T06:20:04.628Z,60.58
2018-09-18T06:20:42.582Z,60.66
2018-09-18T06:21:20.476Z,60.51
2018-09-18T06:21:58.379Z,61.22
2018-09-18T06:22:36.363Z,60.95
2018-09-18T06:23:14.287Z,61.01
2018-09-18T06:23:52.224Z,60.88
2018-09-18T06:24:30.257Z,60.44
2018-09-18T06:25:08.593Z,60.22
2018-09-18T06:25:46.420Z,60.14
2018-09-18T06:27:07.139Z,59.97
2018-09-18T06:27:45.007Z,59.79
2018-09-18T06:28:23.021Z,60.21
2018-09-18T06:29:01.221Z,59.57
2018-09-18T06:29:39.377Z,59.31
2018-09-18T06:30:17.302Z,58.60
2018-09-18T06:30:55.313Z,59.09
2018-09-18T06:31:33.265Z,58.72
2018-09-18T06:32:11.228Z,58.93
2018-09-18T06:32:49.235Z,58.97
2018-09-18T06:33:27.179Z,59.17
2018-09-18T06:34:05.220Z,59.27
2018-09-18T06:34:43.177Z,58.79
2018-09-18T06:35:21.131Z,58.97
2018-09-18T06:35:59.209Z,58.88
2018-09-18T06:36:37.165Z,59.07
2018-09-18T06:37:15.167Z,60.00
2018-09-18T06:37:53.185Z,60.36
2018-09-18T06:38:31.309Z,60.59
2018-09-18T06:39:12.641Z,60.56
2018-09-18T06:39:50.499Z,60.51
2018-09-18T06:40:28.630Z,60.61
2018-09-18T06:41:06.733Z,60.72
2018-09-18T06:41:44.717Z,60.77
2018-09-18T06:42:22.899Z,60.67
2018-09-18T06:43:00.894Z,60.98
2018-09-18T06:43:38.964Z,61.12
2018-09-18T06:44:17.711Z,60.52
2018-09-18T06:44:55.750Z,61.04
2018-09-18T06:45:33.683Z,60.22
2018-09-18T06:46:11.719Z,59.80
2018-09-18T06:46:49.793Z,58.97
2018-09-18T06:47:28.233Z,59.81
2018-09-18T06:48:06.140Z,59.38
2018-09-18T06:48:44.262Z,59.50
2018-09-18T06:49:22.227Z,59.23
2018-09-18T06:50:00.230Z,59.21
2018-09-18T06:50:38.222Z,59.08
2018-09-18T06:51:16.301Z,59.24
2018-09-18T06:51:54.276Z,59.36
2018-09-18T06:52:32.311Z,59.42
2018-09-18T06:53:10.509Z,59.46
2018-09-18T06:53:48.424Z,59.74
2018-09-18T06:54:26.435Z,60.33
2018-09-18T06:55:04.608Z,60.67
2018-09-18T06:55:42.611Z,60.30
2018-09-18T06:56:20.553Z,60.58
2018-09-18T06:56:58.565Z,60.40
2018-09-18T06:57:36.486Z,59.85
2018-09-18T06:58:14.442Z,59.93
2018-09-18T06:58:52.489Z,59.99
2018-09-18T06:59:30.473Z,60.04
2018-09-18T07:00:08.641Z,60.10
2018-09-18T07:00:46.638Z,60.28
2018-09-18T07:01:24.602Z,60.34
2018-09-18T07:02:02.641Z,60.79
2018-09-18T07:02:40.673Z,60.87
2018-09-18T07:03:18.617Z,60.66
2018-09-18T07:03:56.672Z,60.67
2018-09-18T07:04:34.708Z,60.54
2018-09-18T07:05:12.829Z,60.86
2018-09-18T07:05:50.794Z,60.88
2018-09-18T07:06:28.801Z,60.78
2018-09-18T07:07:06.797Z,60.83
2018-09-18T07:07:44.716Z,60.56
2018-09-18T07:08:22.745Z,60.40
2018-09-18T07:09:00.841Z,60.16
2018-09-18T07:09:38.705Z,60.35
2018-09-18T07:10:16.883Z,60.37
2018-09-18T07:10:55.512Z,60.24
2018-09-18T07:11:33.429Z,60.54
2018-09-18T07:12:11.373Z,60.47
2018-09-18T07:12:49.245Z,60.44
2018-09-18T07:13:27.298Z,60.87
2018-09-18T07:14:05.388Z,60.70
2018-09-18T07:14:43.401Z,59.78
2018-09-18T07:15:21.438Z,60.35
2018-09-18T07:15:59.412Z,59.72
2018-09-18T07:16:37.341Z,58.78
2018-09-18T07:17:15.225Z,59.26
2018-09-18T07:17:53.234Z,59.45
2018-09-18T07:18:31.249Z,59.79
2018-09-18T07:19:09.477Z,59.65
2018-09-18T07:19:47.600Z,59.86
2018-09-18T07:20:25.569Z,59.56
2018-09-18T07:21:03.530Z,59.83
2018-09-18T07:21:41.732Z,59.66
2018-09-18T07:22:19.678Z,60.18
2018-09-18T07:22:57.712Z,59.82
2018-09-18T07:23:35.776Z,59.63
2018-09-18T07:24:13.747Z,59.46
2018-09-18T07:24:51.775Z,59.17
2018-09-18T07:25:29.712Z,59.56
2018-09-18T07:26:08.005Z,59.82
2018-09-18T07:26:46.720Z,59.34
2018-09-18T07:27:24.770Z,58.45
2018-09-18T07:28:02.643Z,58.63
2018-09-18T07:28:40.700Z,58.81
2018-09-18T07:29:18.663Z,58.54
2018-09-18T07:29:56.643Z,58.75
2018-09-18T07:30:34.660Z,58.52
2018-09-18T07:31:13.552Z,58.00
2018-09-18T07:31:51.506Z,57.87
2018-09-18T07:32:29.425Z,58.39
2018-09-18T07:33:07.366Z,58.28
2018-09-18T07:33:45.740Z,58.81
2018-09-18T07:34:23.832Z,58.37
2018-09-18T07:35:01.702Z,58.87
2018-09-18T07:35:39.654Z,58.39
2018-09-18T07:36:17.669Z,58.18
2018-09-18T07:36:55.548Z,59.00
2018-09-18T07:37:33.547Z,58.50
2018-09-18T07:38:11.610Z,58.37
2018-09-18T07:38:49.533Z,58.19
2018-09-18T07:39:27.526Z,58.15
2018-09-18T07:40:05.500Z,58.16
2018-09-18T07:40:43.560Z,57.72
2018-09-18T07:41:21.577Z,58.18
2018-09-18T07:41:59.570Z,58.68
2018-09-18T07:42:40.316Z,58.39
2018-09-18T07:43:18.383Z,57.90
2018-09-18T07:43:56.298Z,58.00
2018-09-18T07:44:34.249Z,58.29
2018-09-18T07:45:12.276Z,58.01
2018-09-18T07:45:50.238Z,58.12
2018-09-18T07:46:28.335Z,58.11
2018-09-18T07:47:06.360Z,58.30
2018-09-18T07:47:44.406Z,58.15
2018-09-18T07:48:22.392Z,57.92
2018-09-18T07:49:04.258Z,57.06
2018-09-18T07:49:42.270Z,58.32
2018-09-18T07:50:20.245Z,58.41
2018-09-18T07:50:58.153Z,58.29
2018-09-18T07:51:37.065Z,57.67
2018-09-18T07:52:15.288Z,58.50
2018-09-18T07:52:53.201Z,58.55
2018-09-18T07:53:31.083Z,59.19
2018-09-18T07:54:09.066Z,58.85
2018-09-18T07:54:51.497Z,58.58
2018-09-18T07:55:29.558Z,59.00
2018-09-18T07:56:07.682Z,59.14
2018-09-18T07:56:45.628Z,59.64
2018-09-18T07:57:23.584Z,60.48
2018-09-18T07:58:01.590Z,60.68
2018-09-18T07:58:39.628Z,60.76
2018-09-18T07:59:17.523Z,60.88
2018-09-18T07:59:55.414Z,60.79
2018-09-18T08:00:33.370Z,60.93
2018-09-18T08:01:11.569Z,61.36
2018-09-18T08:01:49.602Z,61.64
2018-09-18T08:02:27.511Z,62.08
2018-09-18T08:03:05.462Z,61.86
2018-09-18T08:03:43.441Z,61.32
2018-09-18T08:04:21.387Z,61.41
2018-09-18T08:04:59.265Z,61.54
2018-09-18T08:05:37.310Z,61.65
2018-09-18T08:06:15.403Z,61.85
2018-09-18T08:06:53.442Z,61.82
2018-09-18T08:07:32.142Z,61.80
2018-09-18T08:08:10.130Z,61.57
2018-09-18T08:08:48.036Z,62.01
2018-09-18T08:09:26.040Z,62.18
2018-09-18T08:10:03.932Z,62.17
2018-09-18T08:10:42.054Z,62.95
2018-09-18T08:11:20.037Z,62.36
2018-09-18T08:11:57.984Z,62.47
2018-09-18T08:12:35.909Z,62.64